createdAt,value
2017-11-24T00:00:39.544Z,9.89
2017-11-24T00:03:07.581Z,9.83
2017-11-24T00:05:37.373Z,9.79
2017-11-24T00:08:05.078Z,9.88
2017-11-24T00:10:34.663Z,9.89
2017-11-24T00:15:39.217Z,10.01
2017-11-24T00:18:08.467Z,10.15
2017-11-24T00:20:36.694Z,10.11
2017-11-24T00:23:05.682Z,10.14
2017-11-24T00:25:34.276Z,9.78
2017-11-24T00:28:02.654Z,9.86
2017-11-24T00:30:31.168Z,9.77
2017-11-24T00:32:58.955Z,9.72
2017-11-24T00:35:28.454Z,9.86
2017-11-24T00:37:58.219Z,9.93
2017-11-24T00:40:26.555Z,9.94
2017-11-24T00:42:55.256Z,10.03
2017-11-24T00:45:23.492Z,9.55
2017-11-24T00:47:51.388Z,9.93
2017-11-24T00:50:19.543Z,9.85
2017-11-24T00:52:47.625Z,9.90
2017-11-24T00:55:17.634Z,9.98
2017-11-24T00:57:51.140Z,10.04
2017-11-24T01:00:19.173Z,10.12
2017-11-24T01:02:57.205Z,9.82
2017-11-24T01:05:31.206Z,9.82
2017-11-24T01:07:59.997Z,10.02
2017-11-24T01:10:34.764Z,10.00
2017-11-24T01:13:02.500Z,9.99
2017-11-24T01:15:39.255Z,9.85
2017-11-24T01:18:09.993Z,9.72
2017-11-24T01:20:39.734Z,9.63
2017-11-24T01:23:13.597Z,9.56
2017-11-24T01:26:10.870Z,9.51
2017-11-24T01:28:39.205Z,9.60
2017-11-24T01:31:07.037Z,9.84
2017-11-24T01:33:34.972Z,9.86
2017-11-24T01:36:07.027Z,9.95
2017-11-24T01:38:37.138Z,10.04
2017-11-24T01:41:07.294Z,9.96
2017-11-24T01:43:36.580Z,9.95
2017-11-24T01:46:05.220Z,9.88
2017-11-24T01:48:39.490Z,10.03
2017-11-24T01:51:10.194Z,10.18
2017-11-24T01:53:38.926Z,10.28
2017-11-24T01:56:07.768Z,10.32
2017-11-24T01:58:37.387Z,9.97
2017-11-24T02:01:07.532Z,10.22
2017-11-24T02:03:37.039Z,10.24
2017-11-24T02:06:05.986Z,10.20
2017-11-24T02:08:34.819Z,10.13
2017-11-24T02:11:04.961Z,9.87
2017-11-24T02:13:41.607Z,9.95
2017-11-24T02:16:11.965Z,10.03
2017-11-24T02:21:16.389Z,10.10
2017-11-24T02:23:50.554Z,9.96
2017-11-24T02:26:22.682Z,10.02
2017-11-24T02:28:51.235Z,9.94
2017-11-24T02:31:22.084Z,10.05
2017-11-24T02:33:53.006Z,10.24
2017-11-24T02:36:21.281Z,10.10
2017-11-24T02:38:49.534Z,10.15
2017-11-24T02:41:18.243Z,9.99
2017-11-24T02:43:46.375Z,10.00
2017-11-24T02:46:15.616Z,10.11
2017-11-24T02:48:45.465Z,10.09
2017-11-24T02:51:13.469Z,10.14
2017-11-24T02:53:43.252Z,9.91
2017-11-24T02:58:46.453Z,10.10
2017-11-24T03:01:14.402Z,10.18
2017-11-24T03:03:46.865Z,9.93
2017-11-24T03:06:14.903Z,9.62
2017-11-24T03:08:50.704Z,10.04
2017-11-24T03:11:19.919Z,10.10
2017-11-24T03:13:52.101Z,10.16
2017-11-24T03:16:26.836Z,10.24
2017-11-24T03:19:03.765Z,10.42
2017-11-24T03:21:35.944Z,10.53
2017-11-24T03:24:06.526Z,10.58
2017-11-24T03:26:36.964Z,10.54
2017-11-24T03:29:08.328Z,10.51
2017-11-24T03:31:40.730Z,10.29
2017-11-24T03:34:16.109Z,10.31
2017-11-24T03:36:52.725Z,10.22
2017-11-24T03:39:33.527Z,10.10
2017-11-24T03:42:04.034Z,10.10
2017-11-24T03:44:36.499Z,10.17
2017-11-24T03:47:05.585Z,10.34
2017-11-24T03:49:33.689Z,10.47
2017-11-24T03:52:02.715Z,10.53
2017-11-24T03:54:33.051Z,10.71
2017-11-24T03:57:04.804Z,10.72
2017-11-24T03:59:32.375Z,10.81
2017-11-24T04:02:05.136Z,10.82
2017-11-24T04:04:33.547Z,10.86
2017-11-24T04:07:01.293Z,10.97
2017-11-24T04:09:29.996Z,10.99
2017-11-24T04:12:01.815Z,10.95
2017-11-24T04:14:30.725Z,11.00
2017-11-24T04:17:01.260Z,10.94
2017-11-24T04:19:39.716Z,10.92
2017-11-24T04:22:09.225Z,10.88
2017-11-24T04:24:41.550Z,10.82
2017-11-24T04:27:09.873Z,10.81
2017-11-24T04:29:37.992Z,10.60
2017-11-24T04:32:08.133Z,10.40
2017-11-24T04:34:37.687Z,10.40
2017-11-24T04:37:05.804Z,10.44
2017-11-24T04:39:38.260Z,10.50
2017-11-24T04:42:07.374Z,10.43
2017-11-24T04:44:35.223Z,10.29
2017-11-24T04:47:02.817Z,10.10
2017-11-24T04:49:30.830Z,10.17
2017-11-24T04:52:01.800Z,10.07
2017-11-24T04:54:29.838Z,9.94
2017-11-24T04:56:59.208Z,9.90
2017-11-24T04:59:27.263Z,9.87
2017-11-24T05:01:59.588Z,9.82
2017-11-24T05:04:36.955Z,9.82
2017-11-24T05:07:05.708Z,9.88
2017-11-24T05:09:34.542Z,9.70
2017-11-24T05:12:16.249Z,9.97
2017-11-24T05:14:48.105Z,9.97
2017-11-24T05:17:18.772Z,10.15
2017-11-24T05:19:47.887Z,10.29
2017-11-24T05:22:15.769Z,10.35
2017-11-24T05:24:47.604Z,10.37
2017-11-24T05:27:15.280Z,10.44
2017-11-24T05:29:42.961Z,10.55
2017-11-24T05:32:14.875Z,10.57
2017-11-24T05:34:43.512Z,10.32
2017-11-24T05:37:11.970Z,10.58
2017-11-24T05:39:41.168Z,10.48
2017-11-24T05:42:15.369Z,10.61
2017-11-24T05:44:43.463Z,10.72
2017-11-24T05:47:26.058Z,10.83
2017-11-24T05:49:56.976Z,10.87
2017-11-24T05:52:24.765Z,10.81
2017-11-24T05:54:52.390Z,10.88
2017-11-24T05:57:20.782Z,10.94
2017-11-24T05:59:48.402Z,11.04
2017-11-24T06:02:16.424Z,11.13
2017-11-24T06:04:45.389Z,11.17
2017-11-24T06:07:42.792Z,11.28
2017-11-24T06:10:14.484Z,11.26
2017-11-24T06:12:42.364Z,11.15
2017-11-24T06:15:10.191Z,11.08
2017-11-24T06:17:38.530Z,11.11
2017-11-24T06:20:07.351Z,11.10
2017-11-24T06:22:35.214Z,11.02
2017-11-24T06:25:02.964Z,11.11
2017-11-24T06:27:30.630Z,11.12
2017-11-24T06:29:58.390Z,11.12
2017-11-24T06:32:25.890Z,11.10
2017-11-24T06:34:53.342Z,11.01
2017-11-24T06:37:20.953Z,11.02
2017-11-24T06:39:48.755Z,10.98
2017-11-24T06:42:17.552Z,11.05
2017-11-24T06:44:49.329Z,11.01
2017-11-24T06:47:20.335Z,10.90
2017-11-24T06:49:53.418Z,11.18
2017-11-24T06:55:30.095Z,11.17
2017-11-24T06:58:05.894Z,11.17
2017-11-24T07:03:10.834Z,11.03
2017-11-24T07:05:38.447Z,10.94
2017-11-24T07:08:06.045Z,11.00
2017-11-24T07:10:39.973Z,10.98
2017-11-24T07:13:12.718Z,11.21
2017-11-24T07:15:44.397Z,11.19
2017-11-24T07:18:12.759Z,11.28
2017-11-24T07:24:16.290Z,11.30
2017-11-24T07:26:45.106Z,11.06
2017-11-24T07:29:16.512Z,10.91
2017-11-24T07:31:44.297Z,10.77
2017-11-24T07:34:16.416Z,11.06
2017-11-24T07:36:44.291Z,11.18
2017-11-24T07:39:12.052Z,11.89
2017-11-24T07:41:39.640Z,12.72
2017-11-24T07:44:07.780Z,14.33
2017-11-24T07:46:35.925Z,15.58
2017-11-24T07:49:03.918Z,15.87
2017-11-24T07:51:32.195Z,16.50
2017-11-24T07:53:59.811Z,16.58
2017-11-24T07:56:28.025Z,17.39
2017-11-24T07:58:55.816Z,16.90
2017-11-24T08:01:23.438Z,15.85
2017-11-24T08:03:51.245Z,14.44
2017-11-24T08:06:19.106Z,13.87
2017-11-24T08:08:46.628Z,13.95
2017-11-24T08:11:14.248Z,14.96
2017-11-24T08:13:41.774Z,15.79
2017-11-24T08:16:09.523Z,15.21
2017-11-24T08:18:37.008Z,14.52
2017-11-24T08:21:05.392Z,14.06
2017-11-24T08:23:33.024Z,13.62
2017-11-24T08:26:01.610Z,13.45
2017-11-24T08:28:29.189Z,13.46
2017-11-24T08:30:56.889Z,13.40
2017-11-24T08:33:24.420Z,13.18
2017-11-24T08:35:51.965Z,13.48
2017-11-24T08:38:19.499Z,13.41
2017-11-24T08:40:46.976Z,13.33
2017-11-24T08:43:14.533Z,13.45
2017-11-24T08:45:42.421Z,13.44
2017-11-24T08:48:15.623Z,13.46
2017-11-24T08:50:44.394Z,13.51
2017-11-24T08:53:11.923Z,13.67
2017-11-24T08:55:39.583Z,13.59
2017-11-24T08:58:07.226Z,13.52
2017-11-24T09:00:34.744Z,13.75
2017-11-24T09:03:02.250Z,13.79
2017-11-24T09:05:29.989Z,13.86
2017-11-24T09:07:57.563Z,13.99
2017-11-24T09:10:25.975Z,13.99
2017-11-24T09:12:53.580Z,13.98
2017-11-24T09:15:21.177Z,13.99
2017-11-24T09:17:48.873Z,13.98
2017-11-24T09:20:16.444Z,14.25
2017-11-24T09:22:43.944Z,14.29
2017-11-24T09:25:11.518Z,14.42
2017-11-24T09:27:39.059Z,14.38
2017-11-24T09:30:06.572Z,14.46
2017-11-24T09:32:34.128Z,14.45
2017-11-24T09:35:02.178Z,14.40
2017-11-24T09:37:29.861Z,14.30
2017-11-24T09:39:58.008Z,14.46
2017-11-24T09:42:25.635Z,14.49
2017-11-24T09:44:54.388Z,14.47
2017-11-24T09:47:22.069Z,14.70
2017-11-24T09:49:49.619Z,14.68
2017-11-24T09:52:17.189Z,14.90
2017-11-24T09:54:44.887Z,15.01
2017-11-24T09:57:12.415Z,15.09
2017-11-24T10:02:33.133Z,15.11
2017-11-24T10:05:00.669Z,15.24
2017-11-24T10:07:31.676Z,15.35
2017-11-24T10:12:46.680Z,15.60
2017-11-24T10:15:14.620Z,15.61
2017-11-24T10:17:43.152Z,15.70
2017-11-24T10:23:37.689Z,15.95
2017-11-24T10:26:05.504Z,16.02
2017-11-24T10:28:36.981Z,16.09
2017-11-24T10:33:53.737Z,16.20
2017-11-24T10:42:12.989Z,16.29
2017-11-24T10:44:46.985Z,16.29
2017-11-24T10:47:16.199Z,16.36
2017-11-24T10:49:53.160Z,16.56
2017-11-24T10:52:23.736Z,16.55
2017-11-24T10:54:54.943Z,16.61
2017-11-24T10:57:47.329Z,16.84
2017-11-24T11:00:14.942Z,17.53
2017-11-24T11:02:43.571Z,17.62
2017-11-24T11:05:16.018Z,17.86
2017-11-24T11:11:25.708Z,18.78
2017-11-24T11:14:26.410Z,19.20
2017-11-24T11:23:15.355Z,21.22
2017-11-24T11:25:45.365Z,21.82
2017-11-24T11:28:22.012Z,22.61
2017-11-24T11:31:02.204Z,21.59
2017-11-24T11:33:37.110Z,22.27
2017-11-24T11:36:09.207Z,21.82
2017-11-24T11:38:36.721Z,21.62
2017-11-24T11:41:12.731Z,21.72
2017-11-24T11:43:54.718Z,20.73
2017-11-24T11:46:34.126Z,21.00
2017-11-24T11:49:03.992Z,21.01
2017-11-24T11:51:45.605Z,20.52
2017-11-24T11:57:15.600Z,20.18
2017-11-24T11:59:58.831Z,19.87
2017-11-24T12:02:29.966Z,19.87
2017-11-24T12:05:06.544Z,20.31
2017-11-24T12:07:36.861Z,20.38
2017-11-24T12:16:03.480Z,20.03
2017-11-24T12:36:10.020Z,18.43
2017-11-24T12:38:37.931Z,18.22
2017-11-24T12:41:18.190Z,18.06
2017-11-24T12:43:45.747Z,17.93
2017-11-24T12:58:22.237Z,17.30
2017-11-24T13:00:55.266Z,17.27
2017-11-24T13:03:31.691Z,17.31
2017-11-24T13:06:00.142Z,17.26
2017-11-24T13:08:27.830Z,17.15
2017-11-24T13:10:55.818Z,17.15
2017-11-24T13:13:24.577Z,16.91
2017-11-24T13:15:52.554Z,17.01
2017-11-24T13:38:28.446Z,15.99
2017-11-24T13:41:04.380Z,16.06
2017-11-24T13:46:22.219Z,15.78
2017-11-24T13:48:50.595Z,15.81
2017-11-24T13:51:18.227Z,15.72
2017-11-24T13:53:45.851Z,15.77
2017-11-24T13:56:19.567Z,15.73
2017-11-24T14:01:30.312Z,15.75
2017-11-24T14:04:14.177Z,15.48
2017-11-24T14:06:43.138Z,15.42
2017-11-24T14:09:12.845Z,15.03
2017-11-24T14:11:40.385Z,15.04
2017-11-24T14:14:07.945Z,14.65
2017-11-24T14:19:21.157Z,14.64
2017-11-24T14:21:49.837Z,14.75
2017-11-24T14:24:17.448Z,14.72
2017-11-24T14:26:45.638Z,14.81
2017-11-24T14:35:59.758Z,14.74
2017-11-24T14:38:35.433Z,14.86
2017-11-24T14:41:03.142Z,14.87
2017-11-24T14:43:30.729Z,14.89
2017-11-24T14:45:58.322Z,14.88
2017-11-24T14:48:29.873Z,14.62
2017-11-24T14:50:57.439Z,14.36
2017-11-24T14:53:24.937Z,14.37
2017-11-24T14:55:52.453Z,14.41
2017-11-24T14:58:21.215Z,14.36
2017-11-24T15:00:48.706Z,14.37
2017-11-24T15:03:16.221Z,14.31
2017-11-24T15:05:43.840Z,14.35
2017-11-24T15:08:14.179Z,14.32
2017-11-24T15:10:42.238Z,14.18
2017-11-24T15:13:09.793Z,14.16
2017-11-24T15:15:37.331Z,14.01
2017-11-24T15:18:04.841Z,14.07
2017-11-24T15:20:32.381Z,14.02
2017-11-24T15:23:00.629Z,14.10
2017-11-24T15:25:28.149Z,14.10
2017-11-24T15:27:56.325Z,14.02
2017-11-24T15:30:24.291Z,13.99
2017-11-24T15:32:52.391Z,13.86
2017-11-24T15:35:20.082Z,13.82
2017-11-24T15:37:51.384Z,13.71
2017-11-24T15:40:21.401Z,13.63
2017-11-24T15:42:51.889Z,13.82
2017-11-24T15:45:20.814Z,13.83
2017-11-24T15:47:48.742Z,13.75
2017-11-24T15:50:17.071Z,13.77
2017-11-24T15:52:44.854Z,13.85
2017-11-24T15:55:13.185Z,13.75
2017-11-24T15:57:41.327Z,13.83
2017-11-24T16:00:09.306Z,13.74
2017-11-24T16:02:37.174Z,13.81
2017-11-24T16:05:04.826Z,13.86
2017-11-24T16:07:32.838Z,13.77
2017-11-24T16:10:00.756Z,13.78
2017-11-24T16:12:29.805Z,13.76
2017-11-24T16:14:59.084Z,13.70
2017-11-24T16:17:29.179Z,13.77
2017-11-24T16:19:57.567Z,13.88
2017-11-24T16:22:26.065Z,13.90
2017-11-24T16:24:54.139Z,14.05
2017-11-24T16:27:21.690Z,14.08
2017-11-24T16:29:49.686Z,14.13
2017-11-24T16:32:17.447Z,14.10
2017-11-24T16:34:45.282Z,14.16
2017-11-24T16:37:13.973Z,14.12
2017-11-24T16:39:47.012Z,13.93
2017-11-24T16:42:45.089Z,14.05
2017-11-24T16:45:16.912Z,14.05
2017-11-24T16:47:47.139Z,14.01
2017-11-24T16:50:18.645Z,14.04
2017-11-24T16:55:50.616Z,14.01
2017-11-24T16:59:49.876Z,13.96
2017-11-24T17:02:34.311Z,13.90
2017-11-24T17:05:02.205Z,13.85
2017-11-24T17:07:30.984Z,13.88
2017-11-24T17:09:58.649Z,13.72
2017-11-24T17:12:26.508Z,13.88
2017-11-24T17:14:54.488Z,13.43
2017-11-24T17:17:23.612Z,13.60
2017-11-24T17:19:54.418Z,13.71
2017-11-24T17:22:25.809Z,13.55
2017-11-24T17:24:55.874Z,13.65
2017-11-24T17:27:25.862Z,13.67
2017-11-24T17:29:53.822Z,13.66
2017-11-24T17:32:22.342Z,13.69
2017-11-24T17:34:51.041Z,13.74
2017-11-24T17:37:18.735Z,13.58
2017-11-24T17:39:47.580Z,13.44
2017-11-24T17:42:15.349Z,13.56
2017-11-24T17:44:43.059Z,13.54
2017-11-24T17:47:10.596Z,13.54
2017-11-24T17:49:38.342Z,13.46
2017-11-24T17:52:06.030Z,13.62
2017-11-24T17:54:34.315Z,13.49
2017-11-24T17:57:02.286Z,13.49
2017-11-24T17:59:30.510Z,13.67
2017-11-24T18:01:58.439Z,13.42
2017-11-24T18:04:28.122Z,13.52
2017-11-24T18:06:56.053Z,13.53
2017-11-24T18:09:24.911Z,13.49
2017-11-24T18:11:52.817Z,13.67
2017-11-24T18:14:21.006Z,13.62
2017-11-24T18:16:49.050Z,13.56
2017-11-24T18:19:20.466Z,13.53
2017-11-24T18:21:48.152Z,13.51
2017-11-24T18:24:19.417Z,13.53
2017-11-24T18:26:47.297Z,13.41
2017-11-24T18:29:16.308Z,13.43
2017-11-24T18:31:44.527Z,13.40
2017-11-24T18:34:14.241Z,13.29
2017-11-24T18:36:42.124Z,13.34
2017-11-24T18:39:09.895Z,13.43
2017-11-24T18:41:38.013Z,13.31
2017-11-24T18:44:05.806Z,13.40
2017-11-24T18:46:33.700Z,13.26
2017-11-24T18:49:01.330Z,13.34
2017-11-24T18:51:30.362Z,13.19
2017-11-24T18:53:58.899Z,13.23
2017-11-24T18:56:28.337Z,13.10
2017-11-24T18:59:03.646Z,13.17
2017-11-24T19:01:34.159Z,13.12
2017-11-24T19:04:05.375Z,13.11
2017-11-24T19:06:33.484Z,13.01
2017-11-24T19:09:01.403Z,13.06
2017-11-24T19:11:29.263Z,13.08
2017-11-24T19:13:56.899Z,13.11
2017-11-24T19:16:24.490Z,13.14
2017-11-24T19:18:52.314Z,13.04
2017-11-24T19:21:21.024Z,12.98
2017-11-24T19:23:48.945Z,13.01
2017-11-24T19:26:16.624Z,12.97
2017-11-24T19:28:44.424Z,12.98
2017-11-24T19:31:12.098Z,12.82
2017-11-24T19:33:39.755Z,12.75
2017-11-24T19:36:07.651Z,12.64
2017-11-24T19:38:35.488Z,12.71
2017-11-24T19:41:03.470Z,12.60
2017-11-24T19:43:31.122Z,12.59
2017-11-24T19:45:59.213Z,12.71
2017-11-24T19:48:28.519Z,12.59
2017-11-24T19:50:56.213Z,12.78
2017-11-24T19:53:24.953Z,12.71
2017-11-24T19:55:54.089Z,12.60
2017-11-24T19:58:25.859Z,12.35
2017-11-24T20:00:54.896Z,12.47
2017-11-24T20:03:22.693Z,12.32
2017-11-24T20:05:51.019Z,12.52
2017-11-24T20:08:20.456Z,12.54
2017-11-24T20:10:49.054Z,12.60
2017-11-24T20:13:17.330Z,12.45
2017-11-24T20:15:45.986Z,12.46
2017-11-24T20:18:14.164Z,12.57
2017-11-24T20:20:43.102Z,12.62
2017-11-24T20:23:11.219Z,12.62
2017-11-24T20:25:44.722Z,12.77
2017-11-24T20:28:13.873Z,12.71
2017-11-24T20:30:42.075Z,12.78
2017-11-24T20:33:11.666Z,12.76
2017-11-24T20:35:39.789Z,12.76
2017-11-24T20:41:02.663Z,12.80
2017-11-24T20:43:35.180Z,12.93
2017-11-24T20:46:06.240Z,12.82
2017-11-24T20:48:36.477Z,12.95
2017-11-24T20:51:07.887Z,12.99
2017-11-24T20:53:37.015Z,12.80
2017-11-24T20:56:05.996Z,12.91
2017-11-24T20:58:35.758Z,13.01
2017-11-24T21:01:07.397Z,13.05
2017-11-24T21:03:35.492Z,13.06
2017-11-24T21:06:04.240Z,13.19
2017-11-24T21:08:32.673Z,13.25
2017-11-24T21:11:00.523Z,13.31
2017-11-24T21:13:28.381Z,13.37
2017-11-24T21:15:56.258Z,13.20
2017-11-24T21:18:24.115Z,13.29
2017-11-24T21:20:51.894Z,13.20
2017-11-24T21:23:19.831Z,13.20
2017-11-24T21:25:47.817Z,13.12
2017-11-24T21:28:17.387Z,12.97
2017-11-24T21:30:45.523Z,12.97
2017-11-24T21:33:16.025Z,13.02
2017-11-24T21:35:44.077Z,12.88
2017-11-24T21:38:12.892Z,12.90
2017-11-24T21:40:41.749Z,12.78
2017-11-24T21:43:13.109Z,12.77
2017-11-24T21:45:45.528Z,12.80
2017-11-24T21:50:52.728Z,12.94
2017-11-24T21:53:30.856Z,13.08
2017-11-24T21:56:00.870Z,12.97
2017-11-24T21:58:28.599Z,12.88
2017-11-24T22:00:58.353Z,12.67
2017-11-24T22:03:26.810Z,12.78
2017-11-24T22:05:58.129Z,12.67
2017-11-24T22:08:26.134Z,12.50
2017-11-24T22:10:53.976Z,12.63
2017-11-24T22:13:22.308Z,12.75
2017-11-24T22:15:50.555Z,12.40
2017-11-24T22:18:25.453Z,12.54
2017-11-24T22:20:55.467Z,12.57
2017-11-24T22:23:26.304Z,12.70
2017-11-24T22:25:54.999Z,12.72
2017-11-24T22:28:26.619Z,12.46
2017-11-24T22:30:55.680Z,12.24
2017-11-24T22:33:24.574Z,12.42
2017-11-24T22:35:53.631Z,12.26
2017-11-24T22:38:21.847Z,12.36
2017-11-24T22:40:52.309Z,12.52
2017-11-24T22:43:21.731Z,12.37
2017-11-24T22:45:50.915Z,12.35
2017-11-24T22:50:55.650Z,12.52
2017-11-24T22:53:24.401Z,12.54
2017-11-24T22:55:54.612Z,12.61
2017-11-24T22:58:24.064Z,12.58
2017-11-24T23:00:54.202Z,12.37
2017-11-24T23:03:24.481Z,12.49
2017-11-24T23:05:52.956Z,12.60
2017-11-24T23:08:21.372Z,12.62
2017-11-24T23:10:52.980Z,12.29
2017-11-24T23:13:21.193Z,12.62
2017-11-24T23:18:24.840Z,12.82
2017-11-24T23:20:54.402Z,12.81
2017-11-24T23:23:24.074Z,12.70
2017-11-24T23:25:54.311Z,12.82
2017-11-24T23:28:22.988Z,12.67
2017-11-24T23:30:50.843Z,12.62
2017-11-24T23:33:20.266Z,12.75
2017-11-24T23:35:51.762Z,12.62
2017-11-24T23:38:20.277Z,12.65
2017-11-24T23:40:50.176Z,12.52
2017-11-24T23:43:21.607Z,12.68
2017-11-24T23:45:49.931Z,12.53
2017-11-24T23:48:17.773Z,12.50
2017-11-24T23:50:45.786Z,12.58
2017-11-24T23:53:17.282Z,12.57
2017-11-24T23:55:46.761Z,12.46
2017-11-24T23:58:15.401Z,12.52
